sensor_id;sensor_type;location;lat;lon;timestamp;pressure;altitude;pressure_sealevel;temperature;humidity
41596;BME280;27283;52.504;13.358;2023-03-18T00:02:08;100695.44;;;8.83;48.55
41596;BME280;27283;52.504;13.358;2023-03-18T00:04:43;100685.94;;;8.89;48.20
41596;BME280;27283;52.504;13.358;2023-03-18T00:07:16;100690.31;;;8.90;48.47
41596;BME280;27283;52.504;13.358;2023-03-18T00:09:48;100691.69;;;8.94;48.46
41596;BME280;27283;52.504;13.358;2023-03-18T00:12:20;100679.56;;;8.90;48.59
41596;BME280;27283;52.504;13.358;2023-03-18T00:14:52;100684.06;;;8.89;48.73
41596;BME280;27283;52.504;13.358;2023-03-18T00:17:24;100683.91;;;8.91;48.72
41596;BME280;27283;52.504;13.358;2023-03-18T00:19:59;100680.97;;;8.94;48.37
41596;BME280;27283;52.504;13.358;2023-03-18T00:22:35;100685.78;;;8.90;48.34
41596;BME280;27283;52.504;13.358;2023-03-18T00:25:10;100675.72;;;8.92;48.41
41596;BME280;27283;52.504;13.358;2023-03-18T00:27:43;100670.81;;;8.87;48.56
41596;BME280;27283;52.504;13.358;2023-03-18T00:30:15;100678.66;;;8.81;48.81
41596;BME280;27283;52.504;13.358;2023-03-18T00:32:48;100666.72;;;8.75;48.99
41596;BME280;27283;52.504;13.358;2023-03-18T00:35:24;100665.97;;;8.65;49.13
41596;BME280;27283;52.504;13.358;2023-03-18T00:37:58;100682.75;;;8.67;49.30
41596;BME280;27283;52.504;13.358;2023-03-18T00:40:32;100679.59;;;8.72;49.00
41596;BME280;27283;52.504;13.358;2023-03-18T00:43:23;100666.19;;;8.72;49.02
41596;BME280;27283;52.504;13.358;2023-03-18T00:45:58;100670.34;;;8.66;49.14
41596;BME280;27283;52.504;13.358;2023-03-18T00:48:30;100672.88;;;8.67;49.25
41596;BME280;27283;52.504;13.358;2023-03-18T00:51:05;100667.44;;;8.59;49.71
41596;BME280;27283;52.504;13.358;2023-03-18T00:53:42;100662.91;;;8.60;49.34
41596;BME280;27283;52.504;13.358;2023-03-18T00:56:15;100672.09;;;8.57;49.24
41596;BME280;27283;52.504;13.358;2023-03-18T00:58:48;100661.19;;;8.50;49.31
41596;BME280;27283;52.504;13.358;2023-03-18T01:01:22;100665.84;;;8.48;49.23
41596;BME280;27283;52.504;13.358;2023-03-18T01:03:54;100669.56;;;8.38;49.79
41596;BME280;27283;52.504;13.358;2023-03-18T01:06:58;100669.56;;;8.38;49.75
41596;BME280;27283;52.504;13.358;2023-03-18T01:09:30;100668.34;;;8.32;49.67
41596;BME280;27283;52.504;13.358;2023-03-18T01:12:04;100670.41;;;8.38;49.40
41596;BME280;27283;52.504;13.358;2023-03-18T01:14:37;100657.34;;;8.35;49.83
41596;BME280;27283;52.504;13.358;2023-03-18T01:17:10;100661.16;;;8.32;49.29
41596;BME280;27283;52.504;13.358;2023-03-18T01:19:43;100661.91;;;8.25;49.94
41596;BME280;27283;52.504;13.358;2023-03-18T01:22:18;100659.63;;;8.30;49.86
41596;BME280;27283;52.504;13.358;2023-03-18T01:24:51;100660.78;;;8.27;49.70
41596;BME280;27283;52.504;13.358;2023-03-18T01:27:23;100662.13;;;8.31;49.44
41596;BME280;27283;52.504;13.358;2023-03-18T01:29:56;100662.28;;;8.30;49.57
41596;BME280;27283;52.504;13.358;2023-03-18T01:32:29;100661.75;;;8.26;49.30
41596;BME280;27283;52.504;13.358;2023-03-18T01:35:03;100661.63;;;8.28;49.33
41596;BME280;27283;52.504;13.358;2023-03-18T01:37:39;100658.25;;;8.26;49.60
41596;BME280;27283;52.504;13.358;2023-03-18T01:40:13;100657.69;;;8.22;49.71
41596;BME280;27283;52.504;13.358;2023-03-18T01:42:51;100645.69;;;8.26;49.38
41596;BME280;27283;52.504;13.358;2023-03-18T01:45:26;100648.69;;;8.23;49.21
41596;BME280;27283;52.504;13.358;2023-03-18T01:47:59;100655.78;;;8.32;49.21
41596;BME280;27283;52.504;13.358;2023-03-18T01:50:34;100654.72;;;8.25;49.33
41596;BME280;27283;52.504;13.358;2023-03-18T01:53:13;100649.06;;;8.28;49.37
41596;BME280;27283;52.504;13.358;2023-03-18T01:55:48;100654.09;;;8.31;48.96
41596;BME280;27283;52.504;13.358;2023-03-18T01:58:26;100661.16;;;8.32;49.25
41596;BME280;27283;52.504;13.358;2023-03-18T02:01:04;100658.94;;;8.28;48.96
41596;BME280;27283;52.504;13.358;2023-03-18T02:03:40;100653.41;;;8.29;49.17
41596;BME280;27283;52.504;13.358;2023-03-18T02:06:12;100653.41;;;8.29;48.91
41596;BME280;27283;52.504;13.358;2023-03-18T02:08:48;100666.81;;;8.29;49.11
41596;BME280;27283;52.504;13.358;2023-03-18T02:11:20;100666.13;;;8.27;48.53
41596;BME280;27283;52.504;13.358;2023-03-18T02:13:54;100662.06;;;8.23;49.20
41596;BME280;27283;52.504;13.358;2023-03-18T02:16:29;100666.28;;;8.26;48.83
41596;BME280;27283;52.504;13.358;2023-03-18T02:19:28;100663.75;;;8.24;48.67
41596;BME280;27283;52.504;13.358;2023-03-18T02:22:10;100659.63;;;8.30;48.67
41596;BME280;27283;52.504;13.358;2023-03-18T02:24:55;100656.78;;;8.31;48.58
41596;BME280;27283;52.504;13.358;2023-03-18T02:27:36;100664.13;;;8.29;49.17
41596;BME280;27283;52.504;13.358;2023-03-18T02:30:13;100658.25;;;8.26;49.06
41596;BME280;27283;52.504;13.358;2023-03-18T02:32:47;100660.22;;;8.24;48.59
41596;BME280;27283;52.504;13.358;2023-03-18T02:35:22;100658.53;;;8.23;48.67
41596;BME280;27283;52.504;13.358;2023-03-18T02:37:54;100654.88;;;8.24;48.91
41596;BME280;27283;52.504;13.358;2023-03-18T02:40:28;100660.22;;;8.24;49.17
41596;BME280;27283;52.504;13.358;2023-03-18T02:43:19;100650.34;;;8.24;48.91
41596;BME280;27283;52.504;13.358;2023-03-18T02:46:10;100655.56;;;8.26;48.99
41596;BME280;27283;52.504;13.358;2023-03-18T02:48:45;100656.41;;;8.26;48.82
41596;BME280;27283;52.504;13.358;2023-03-18T02:51:20;100652.19;;;8.24;48.80
41596;BME280;27283;52.504;13.358;2023-03-18T02:53:55;100647.53;;;8.26;48.88
41596;BME280;27283;52.504;13.358;2023-03-18T02:56:29;100646.38;;;8.28;48.60
41596;BME280;27283;52.504;13.358;2023-03-18T02:59:05;100644.72;;;8.27;48.79
41596;BME280;27283;52.504;13.358;2023-03-18T03:01:39;100641.56;;;8.32;49.05
41596;BME280;27283;52.504;13.358;2023-03-18T03:04:13;100641.56;;;8.32;48.81
41596;BME280;27283;52.504;13.358;2023-03-18T03:06:46;100642.72;;;8.29;48.82
41596;BME280;27283;52.504;13.358;2023-03-18T03:09:19;100643.84;;;8.27;49.00
41596;BME280;27283;52.504;13.358;2023-03-18T03:11:52;100638.78;;;8.24;48.82
41596;BME280;27283;52.504;13.358;2023-03-18T03:14:27;100654.25;;;8.12;49.45
41596;BME280;27283;52.504;13.358;2023-03-18T03:17:00;100658.78;;;8.11;49.33
41596;BME280;27283;52.504;13.358;2023-03-18T03:19:32;100656.41;;;8.08;49.56
41596;BME280;27283;52.504;13.358;2023-03-18T03:22:05;100655.41;;;8.09;49.83
41596;BME280;27283;52.504;13.358;2023-03-18T03:24:38;100657.22;;;8.09;49.87
41596;BME280;27283;52.504;13.358;2023-03-18T03:27:11;100662.44;;;8.10;49.55
41596;BME280;27283;52.504;13.358;2023-03-18T03:29:46;100663.59;;;8.08;49.98
41596;BME280;27283;52.504;13.358;2023-03-18T03:32:19;100657.38;;;8.07;49.62
41596;BME280;27283;52.504;13.358;2023-03-18T03:34:51;100667.25;;;8.07;49.80
41596;BME280;27283;52.504;13.358;2023-03-18T03:37:23;100659.06;;;8.08;49.96
41596;BME280;27283;52.504;13.358;2023-03-18T03:39:55;100659.38;;;8.05;50.19
41596;BME280;27283;52.504;13.358;2023-03-18T03:42:28;100655.00;;;8.04;50.38
41596;BME280;27283;52.504;13.358;2023-03-18T03:45:04;100652.19;;;8.06;50.29
41596;BME280;27283;52.504;13.358;2023-03-18T03:47:36;100647.88;;;7.95;50.06
41596;BME280;27283;52.504;13.358;2023-03-18T03:50:10;100655.47;;;7.99;50.03
41596;BME280;27283;52.504;13.358;2023-03-18T03:52:42;100653.63;;;8.00;50.31
41596;BME280;27283;52.504;13.358;2023-03-18T03:55:17;100658.81;;;8.02;50.18
41596;BME280;27283;52.504;13.358;2023-03-18T03:57:50;100662.66;;;7.99;50.26
41596;BME280;27283;52.504;13.358;2023-03-18T04:00:25;100662.50;;;8.01;50.30
41596;BME280;27283;52.504;13.358;2023-03-18T04:02:59;100660.97;;;7.98;50.54
41596;BME280;27283;52.504;13.358;2023-03-18T04:05:31;100656.03;;;8.03;50.43
41596;BME280;27283;52.504;13.358;2023-03-18T04:08:04;100653.09;;;7.96;50.24
41596;BME280;27283;52.504;13.358;2023-03-18T04:10:36;100651.56;;;7.94;50.08
41596;BME280;27283;52.504;13.358;2023-03-18T04:13:08;100663.94;;;7.95;50.97
41596;BME280;27283;52.504;13.358;2023-03-18T04:15:43;100661.66;;;8.00;50.75
41596;BME280;27283;52.504;13.358;2023-03-18T04:18:15;100678.72;;;7.99;50.71
41596;BME280;27283;52.504;13.358;2023-03-18T04:20:47;100680.25;;;8.02;50.73
41596;BME280;27283;52.504;13.358;2023-03-18T04:23:20;100681.09;;;8.02;50.69
41596;BME280;27283;52.504;13.358;2023-03-18T07:45:52;100785.63;;;10.23;47.51
41596;BME280;27283;52.504;13.358;2023-03-18T07:48:23;100773.78;;;10.42;46.57
41596;BME280;27283;52.504;13.358;2023-03-18T07:50:55;100784.94;;;10.72;46.27
41596;BME280;27283;52.504;13.358;2023-03-18T07:53:32;100787.97;;;10.94;46.08
41596;BME280;27283;52.504;13.358;2023-03-18T07:56:10;100795.19;;;11.43;44.59
41596;BME280;27283;52.504;13.358;2023-03-18T07:58:42;100801.72;;;11.73;44.02
41596;BME280;27283;52.504;13.358;2023-03-18T08:01:21;100810.59;;;11.90;44.48
41596;BME280;27283;52.504;13.358;2023-03-18T08:03:58;100804.97;;;12.16;44.12
41596;BME280;27283;52.504;13.358;2023-03-18T08:06:32;100805.34;;;12.36;42.97
41596;BME280;27283;52.504;13.358;2023-03-18T08:09:10;100807.50;;;12.49;43.54
41596;BME280;27283;52.504;13.358;2023-03-18T08:11:43;100799.03;;;12.61;42.48
41596;BME280;27283;52.504;13.358;2023-03-18T08:14:17;100798.94;;;12.46;44.27
41596;BME280;27283;52.504;13.358;2023-03-18T08:16:52;100799.81;;;12.92;42.65
41596;BME280;27283;52.504;13.358;2023-03-18T08:19:24;100792.94;;;13.28;41.56
41596;BME280;27283;52.504;13.358;2023-03-18T08:21:57;100792.47;;;13.01;42.52
41596;BME280;27283;52.504;13.358;2023-03-18T08:24:28;100805.41;;;13.29;42.00
41596;BME280;27283;52.504;13.358;2023-03-18T08:27:00;100803.56;;;13.53;41.91
41596;BME280;27283;52.504;13.358;2023-03-18T08:29:32;100811.28;;;13.86;41.65
41596;BME280;27283;52.504;13.358;2023-03-18T08:32:09;100806.94;;;13.99;41.33
41596;BME280;27283;52.504;13.358;2023-03-18T08:34:46;100813.22;;;14.36;40.35
41596;BME280;27283;52.504;13.358;2023-03-18T08:37:23;100811.19;;;15.18;39.02
41596;BME280;27283;52.504;13.358;2023-03-18T08:39:55;100815.13;;;14.73;39.80
41596;BME280;27283;52.504;13.358;2023-03-18T08:42:27;100812.13;;;15.04;39.20
41596;BME280;27283;52.504;13.358;2023-03-18T08:44:58;100817.00;;;15.15;39.87
41596;BME280;27283;52.504;13.358;2023-03-18T08:47:40;100807.16;;;14.86;39.94
41596;BME280;27283;52.504;13.358;2023-03-18T08:50:14;100809.06;;;14.70;40.01
41596;BME280;27283;52.504;13.358;2023-03-18T08:52:49;100800.00;;;14.78;39.70
41596;BME280;27283;52.504;13.358;2023-03-18T08:55:23;100800.47;;;14.88;39.65
41596;BME280;27283;52.504;13.358;2023-03-18T08:58:06;100805.53;;;15.13;40.94
41596;BME280;27283;52.504;13.358;2023-03-18T09:00:41;100819.69;;;15.15;39.97
41596;BME280;27283;52.504;13.358;2023-03-18T09:03:15;100816.66;;;15.03;39.85
41596;BME280;27283;52.504;13.358;2023-03-18T09:05:47;100825.50;;;14.91;43.08
41596;BME280;27283;52.504;13.358;2023-03-18T09:08:20;100827.19;;;14.92;43.09
41596;BME280;27283;52.504;13.358;2023-03-18T09:10:57;100829.34;;;15.46;39.92
41596;BME280;27283;52.504;13.358;2023-03-18T09:13:30;100837.88;;;15.71;38.34
41596;BME280;27283;52.504;13.358;2023-03-18T09:16:08;100822.88;;;15.47;39.93
41596;BME280;27283;52.504;13.358;2023-03-18T09:18:46;100825.09;;;15.65;40.84
41596;BME280;27283;52.504;13.358;2023-03-18T09:21:17;100818.69;;;15.73;39.72
41596;BME280;27283;52.504;13.358;2023-03-18T09:23:50;100831.66;;;16.54;37.36
41596;BME280;27283;52.504;13.358;2023-03-18T09:26:22;100821.16;;;16.38;37.89
41596;BME280;27283;52.504;13.358;2023-03-18T09:28:56;100834.66;;;16.79;39.13
41596;BME280;27283;52.504;13.358;2023-03-18T09:31:28;100831.66;;;17.23;36.53
41596;BME280;27283;52.504;13.358;2023-03-18T09:34:03;100836.25;;;17.35;36.94
41596;BME280;27283;52.504;13.358;2023-03-18T09:36:49;100837.69;;;17.25;36.88
41596;BME280;27283;52.504;13.358;2023-03-18T09:39:26;100840.63;;;17.43;37.29
41596;BME280;27283;52.504;13.358;2023-03-18T09:42:11;100841.00;;;17.87;35.41
41596;BME280;27283;52.504;13.358;2023-03-18T09:44:50;100846.56;;;18.32;35.18
41596;BME280;27283;52.504;13.358;2023-03-18T09:47:45;100848.38;;;18.52;34.16
41596;BME280;27283;52.504;13.358;2023-03-18T09:50:36;100848.75;;;18.03;34.42
41596;BME280;27283;52.504;13.358;2023-03-18T09:53:17;100845.47;;;18.47;35.88
41596;BME280;27283;52.504;13.358;2023-03-18T09:55:54;100852.53;;;18.61;35.46
41596;BME280;27283;52.504;13.358;2023-03-18T09:58:42;100840.72;;;19.12;33.36
41596;BME280;27283;52.504;13.358;2023-03-18T10:01:18;100850.47;;;19.84;32.84
41596;BME280;27283;52.504;13.358;2023-03-18T10:03:56;100839.16;;;18.98;34.87
41596;BME280;27283;52.504;13.358;2023-03-18T10:06:37;100843.41;;;19.44;34.10
41596;BME280;27283;52.504;13.358;2023-03-18T10:09:19;100841.88;;;19.30;32.89
41596;BME280;27283;52.504;13.358;2023-03-18T10:12:13;100849.78;;;19.06;34.09
41596;BME280;27283;52.504;13.358;2023-03-18T10:14:58;100836.97;;;19.13;33.97
41596;BME280;27283;52.504;13.358;2023-03-18T10:17:38;100837.88;;;19.83;33.57
41596;BME280;27283;52.504;13.358;2023-03-18T10:20:22;100833.63;;;20.06;32.51
41596;BME280;27283;52.504;13.358;2023-03-18T10:23:12;100829.88;;;20.74;31.09
41596;BME280;27283;52.504;13.358;2023-03-18T10:25:54;100830.06;;;20.24;32.56
41596;BME280;27283;52.504;13.358;2023-03-18T10:31:40;100835.16;;;20.20;32.09
41596;BME280;27283;52.504;13.358;2023-03-18T10:34:20;100832.84;;;20.54;33.52
41596;BME280;27283;52.504;13.358;2023-03-18T10:36:58;100835.84;;;20.34;33.59
41596;BME280;27283;52.504;13.358;2023-03-18T10:39:39;100832.50;;;19.95;34.49
41596;BME280;27283;52.504;13.358;2023-03-18T10:42:19;100830.97;;;19.80;35.03
41596;BME280;27283;52.504;13.358;2023-03-18T10:44:54;100833.72;;;19.99;33.37
41596;BME280;27283;52.504;13.358;2023-03-18T10:47:37;100832.50;;;20.50;32.43
41596;BME280;27283;52.504;13.358;2023-03-18T10:50:16;100832.38;;;20.76;33.09
41596;BME280;27283;52.504;13.358;2023-03-18T10:52:53;100833.09;;;21.13;31.23
41596;BME280;27283;52.504;13.358;2023-03-18T10:55:35;100844.78;;;21.32;31.73
41596;BME280;27283;52.504;13.358;2023-03-18T10:58:15;100836.91;;;21.12;31.88
41596;BME280;27283;52.504;13.358;2023-03-18T11:00:47;100839.16;;;21.27;32.03
41596;BME280;27283;52.504;13.358;2023-03-18T11:03:23;100836.69;;;21.37;31.37
41596;BME280;27283;52.504;13.358;2023-03-18T11:06:00;100841.28;;;21.55;31.65
41596;BME280;27283;52.504;13.358;2023-03-18T11:08:37;100835.81;;;21.67;31.27
41596;BME280;27283;52.504;13.358;2023-03-18T11:11:26;100839.25;;;21.63;30.92
41596;BME280;27283;52.504;13.358;2023-03-18T11:14:02;100837.28;;;21.28;33.37
41596;BME280;27283;52.504;13.358;2023-03-18T11:16:38;100833.63;;;20.92;33.99
41596;BME280;27283;52.504;13.358;2023-03-18T11:19:32;100821.41;;;21.06;33.35
41596;BME280;27283;52.504;13.358;2023-03-18T11:22:22;100830.25;;;21.20;32.96
41596;BME280;27283;52.504;13.358;2023-03-18T11:25:12;100830.38;;;21.25;32.31
41596;BME280;27283;52.504;13.358;2023-03-18T11:28:01;100821.47;;;21.30;33.09
41596;BME280;27283;52.504;13.358;2023-03-18T11:30:43;100825.47;;;21.03;34.35
41596;BME280;27283;52.504;13.358;2023-03-18T11:33:16;100819.28;;;20.29;36.82
41596;BME280;27283;52.504;13.358;2023-03-18T11:35:52;100827.50;;;19.66;38.10
41596;BME280;27283;52.504;13.358;2023-03-18T11:38:29;100822.78;;;19.30;38.52
41596;BME280;27283;52.504;13.358;2023-03-18T11:41:05;100822.22;;;18.89;39.66
41596;BME280;27283;52.504;13.358;2023-03-18T11:43:54;100833.00;;;19.09;39.62
41596;BME280;27283;52.504;13.358;2023-03-18T11:46:30;100831.88;;;19.17;38.74
41596;BME280;27283;52.504;13.358;2023-03-18T11:49:08;100828.84;;;19.07;39.00
41596;BME280;27283;52.504;13.358;2023-03-18T11:51:49;100833.00;;;19.09;39.00
41596;BME280;27283;52.504;13.358;2023-03-18T11:54:41;100820.97;;;19.49;38.62
41596;BME280;27283;52.504;13.358;2023-03-18T11:57:19;100820.03;;;19.80;36.77
41596;BME280;27283;52.504;13.358;2023-03-18T12:00:13;100819.06;;;20.12;36.69
41596;BME280;27283;52.504;13.358;2023-03-18T12:05:54;100833.41;;;19.89;38.29
41596;BME280;27283;52.504;13.358;2023-03-18T12:08:36;100826.34;;;20.18;37.76
41596;BME280;27283;52.504;13.358;2023-03-18T12:11:20;100824.78;;;19.92;38.46
41596;BME280;27283;52.504;13.358;2023-03-18T12:14:00;100823.66;;;19.74;39.80
41596;BME280;27283;52.504;13.358;2023-03-18T12:16:48;100821.09;;;19.29;40.08
41596;BME280;27283;52.504;13.358;2023-03-18T12:19:45;100826.13;;;19.57;40.45
41596;BME280;27283;52.504;13.358;2023-03-18T12:22:32;100824.16;;;19.64;39.92
41596;BME280;27283;52.504;13.358;2023-03-18T12:25:21;100829.16;;;19.17;41.94
41596;BME280;27283;52.504;13.358;2023-03-18T12:28:02;100828.28;;;18.91;42.96
41596;BME280;27283;52.504;13.358;2023-03-18T12:30:52;100820.09;;;18.98;42.24
41596;BME280;27283;52.504;13.358;2023-03-18T12:33:49;100827.50;;;19.16;42.20
41596;BME280;27283;52.504;13.358;2023-03-18T12:36:36;100821.75;;;18.99;42.11
41596;BME280;27283;52.504;13.358;2023-03-18T12:42:17;100828.66;;;18.63;43.24
41596;BME280;27283;52.504;13.358;2023-03-18T12:44:57;100820.59;;;18.75;43.56
41596;BME280;27283;52.504;13.358;2023-03-18T12:47:35;100821.09;;;18.65;44.38
41596;BME280;27283;52.504;13.358;2023-03-18T12:50:17;100819.94;;;18.86;43.08
41596;BME280;27283;52.504;13.358;2023-03-18T12:52:53;100831.09;;;18.71;43.74
41596;BME280;27283;52.504;13.358;2023-03-18T12:55:31;100824.63;;;18.72;43.96
41596;BME280;27283;52.504;13.358;2023-03-18T12:58:09;100824.63;;;18.72;43.21
41596;BME280;27283;52.504;13.358;2023-03-18T13:00:59;100824.41;;;18.67;43.75
41596;BME280;27283;52.504;13.358;2023-03-18T13:03:36;100821.75;;;18.60;45.13
41596;BME280;27283;52.504;13.358;2023-03-18T13:06:16;100821.25;;;18.25;45.65
41596;BME280;27283;52.504;13.358;2023-03-18T13:08:59;100817.94;;;18.23;46.23
41596;BME280;27283;52.504;13.358;2023-03-18T13:11:52;100805.72;;;18.39;46.37
41596;BME280;27283;52.504;13.358;2023-03-18T13:14:30;100807.81;;;18.44;46.12
41596;BME280;27283;52.504;13.358;2023-03-18T13:17:09;100804.22;;;18.43;46.15
41596;BME280;27283;52.504;13.358;2023-03-18T13:19:44;100800.19;;;18.52;46.77
41596;BME280;27283;52.504;13.358;2023-03-18T13:22:35;100807.81;;;18.37;46.79
41596;BME280;27283;52.504;13.358;2023-03-18T13:25:22;100804.31;;;18.23;46.33
41596;BME280;27283;52.504;13.358;2023-03-18T13:31:19;100810.66;;;18.10;47.72
41596;BME280;27283;52.504;13.358;2023-03-18T13:37:11;100802.63;;;18.29;46.27
41596;BME280;27283;52.504;13.358;2023-03-18T13:42:59;100814.94;;;18.31;46.53
41596;BME280;27283;52.504;13.358;2023-03-18T13:45:37;100809.53;;;18.24;45.72
41596;BME280;27283;52.504;13.358;2023-03-18T13:48:13;100809.38;;;18.13;46.26
41596;BME280;27283;52.504;13.358;2023-03-18T13:50:50;100811.47;;;18.11;46.64
41596;BME280;27283;52.504;13.358;2023-03-18T13:53:27;100814.63;;;18.08;47.27
41596;BME280;27283;52.504;13.358;2023-03-18T13:56:04;100809.59;;;18.18;47.01
41596;BME280;27283;52.504;13.358;2023-03-18T13:58:45;100815.09;;;17.91;47.49
41596;BME280;27283;52.504;13.358;2023-03-18T14:01:29;100811.50;;;17.84;47.24
41596;BME280;27283;52.504;13.358;2023-03-18T14:04:27;100807.97;;;17.97;47.20
41596;BME280;27283;52.504;13.358;2023-03-18T14:07:12;100815.28;;;17.76;47.75
41596;BME280;27283;52.504;13.358;2023-03-18T14:09:49;100809.88;;;17.89;47.87
41596;BME280;27283;52.504;13.358;2023-03-18T14:12:39;100800.03;;;17.95;48.06
41596;BME280;27283;52.504;13.358;2023-03-18T14:15:41;100800.81;;;18.02;47.69
41596;BME280;27283;52.504;13.358;2023-03-18T14:18:32;100802.53;;;17.90;48.16
41596;BME280;27283;52.504;13.358;2023-03-18T14:21:22;100806.31;;;17.89;48.16
41596;BME280;27283;52.504;13.358;2023-03-18T14:24:10;100802.31;;;17.85;48.69
41596;BME280;27283;52.504;13.358;2023-03-18T14:26:46;100804.22;;;17.91;47.75
41596;BME280;27283;52.504;13.358;2023-03-18T14:29:24;100796.66;;;18.00;47.59
41596;BME280;27283;52.504;13.358;2023-03-18T14:32:02;100794.72;;;18.07;47.44
41596;BME280;27283;52.504;13.358;2023-03-18T14:34:53;100787.84;;;17.98;48.52
41596;BME280;27283;52.504;13.358;2023-03-18T14:37:27;100788.72;;;17.92;48.27
41596;BME280;27283;52.504;13.358;2023-03-18T14:40:04;100787.06;;;17.70;49.61
41596;BME280;27283;52.504;13.358;2023-03-18T14:42:43;100785.63;;;17.68;49.79
41596;BME280;27283;52.504;13.358;2023-03-18T14:45:24;100799.63;;;17.71;50.33
41596;BME280;27283;52.504;13.358;2023-03-18T14:48:02;100787.88;;;17.84;50.39
41596;BME280;27283;52.504;13.358;2023-03-18T14:50:39;100790.19;;;17.87;49.53
41596;BME280;27283;52.504;13.358;2023-03-18T14:53:17;100782.25;;;17.93;49.94
41596;BME280;27283;52.504;13.358;2023-03-18T14:55:52;100786.38;;;18.02;49.76
41596;BME280;27283;52.504;13.358;2023-03-18T14:58:26;100782.38;;;18.11;49.21
41596;BME280;27283;52.504;13.358;2023-03-18T15:01:03;100788.25;;;18.15;49.25
41596;BME280;27283;52.504;13.358;2023-03-18T15:03:43;100776.50;;;18.21;49.14
41596;BME280;27283;52.504;13.358;2023-03-18T15:06:19;100774.56;;;18.28;49.63
41596;BME280;27283;52.504;13.358;2023-03-18T15:08:56;100769.13;;;18.28;49.09
41596;BME280;27283;52.504;13.358;2023-03-18T15:11:30;100773.94;;;18.26;49.52
41596;BME280;27283;52.504;13.358;2023-03-18T15:14:10;100772.91;;;18.27;49.01
41596;BME280;27283;52.504;13.358;2023-03-18T15:16:48;100771.00;;;18.28;49.56
41596;BME280;27283;52.504;13.358;2023-03-18T15:19:22;100768.13;;;18.22;49.58
41596;BME280;27283;52.504;13.358;2023-03-18T15:21:56;100776.50;;;18.14;49.91
41596;BME280;27283;52.504;13.358;2023-03-18T15:24:29;100775.94;;;17.99;49.77
41596;BME280;27283;52.504;13.358;2023-03-18T15:27:04;100777.63;;;17.86;50.39
41596;BME280;27283;52.504;13.358;2023-03-18T15:29:43;100779.53;;;17.79;50.37
41596;BME280;27283;52.504;13.358;2023-03-18T15:32:19;100779.75;;;17.64;51.06
41596;BME280;27283;52.504;13.358;2023-03-18T15:34:56;100781.44;;;17.59;51.42
41596;BME280;27283;52.504;13.358;2023-03-18T15:37:38;100781.88;;;17.49;51.78
41596;BME280;27283;52.504;13.358;2023-03-18T15:40:25;100785.63;;;17.48;52.07
41596;BME280;27283;52.504;13.358;2023-03-18T15:43:04;100791.28;;;17.40;52.59
41596;BME280;27283;52.504;13.358;2023-03-18T15:45:43;100790.44;;;17.39;52.00
41596;BME280;27283;52.504;13.358;2023-03-18T15:48:21;100792.53;;;17.37;52.03
41596;BME280;27283;52.504;13.358;2023-03-18T15:51:01;100803.19;;;17.25;52.80
41596;BME280;27283;52.504;13.358;2023-03-18T15:53:40;100793.78;;;17.34;53.26
41596;BME280;27283;52.504;13.358;2023-03-18T15:56:18;100793.19;;;17.32;53.24
41596;BME280;27283;52.504;13.358;2023-03-18T15:59:01;100798.81;;;17.31;52.93
41596;BME280;27283;52.504;13.358;2023-03-18T16:01:34;100802.78;;;17.28;53.07
41596;BME280;27283;52.504;13.358;2023-03-18T16:04:12;100819.94;;;17.15;53.55
41596;BME280;27283;52.504;13.358;2023-03-18T16:06:47;100810.94;;;17.15;54.04
41596;BME280;27283;52.504;13.358;2023-03-18T16:09:21;100808.84;;;17.10;53.88
41596;BME280;27283;52.504;13.358;2023-03-18T16:11:55;100811.97;;;17.07;54.05
41596;BME280;27283;52.504;13.358;2023-03-18T16:14:34;100815.31;;;16.96;54.13
41596;BME280;27283;52.504;13.358;2023-03-18T16:17:10;100819.50;;;16.98;54.32
41596;BME280;27283;52.504;13.358;2023-03-18T16:19:43;100817.22;;;17.15;53.16
41596;BME280;27283;52.504;13.358;2023-03-18T16:22:19;100823.06;;;17.19;53.69
41596;BME280;27283;52.504;13.358;2023-03-18T16:24:50;100816.78;;;17.18;52.59
41596;BME280;27283;52.504;13.358;2023-03-18T16:27:28;100821.00;;;17.21;53.34
41596;BME280;27283;52.504;13.358;2023-03-18T16:30:03;100824.75;;;17.20;53.14
41596;BME280;27283;52.504;13.358;2023-03-18T16:32:35;100825.97;;;17.17;52.54
41596;BME280;27283;52.504;13.358;2023-03-18T16:35:13;100826.19;;;17.16;52.98
41596;BME280;27283;52.504;13.358;2023-03-18T16:37:50;100831.63;;;17.16;53.01
41596;BME280;27283;52.504;13.358;2023-03-18T16:40:24;100841.84;;;17.07;53.94
41596;BME280;27283;52.504;13.358;2023-03-18T16:43:01;100835.59;;;17.00;53.84
41596;BME280;27283;52.504;13.358;2023-03-18T16:45:57;100844.78;;;16.99;53.14
41596;BME280;27283;52.504;13.358;2023-03-18T16:48:42;100843.28;;;16.90;53.72
41596;BME280;27283;52.504;13.358;2023-03-18T16:51:15;100840.09;;;16.79;54.95
41596;BME280;27283;52.504;13.358;2023-03-18T16:53:52;100842.97;;;16.64;54.61
41596;BME280;27283;52.504;13.358;2023-03-18T16:56:25;100847.94;;;16.47;55.97
41596;BME280;27283;52.504;13.358;2023-03-18T16:58:57;100839.13;;;16.39;55.47
41596;BME280;27283;52.504;13.358;2023-03-18T17:01:34;100850.16;;;16.30;56.17
41596;BME280;27283;52.504;13.358;2023-03-18T17:04:15;100849.22;;;16.17;56.29
41596;BME280;27283;52.504;13.358;2023-03-18T17:06:49;100851.44;;;16.00;57.34
41596;BME280;27283;52.504;13.358;2023-03-18T17:09:28;100857.25;;;15.97;57.53
41596;BME280;27283;52.504;13.358;2023-03-18T17:12:03;100862.59;;;15.83;57.70
41596;BME280;27283;52.504;13.358;2023-03-18T17:14:39;100868.78;;;15.77;58.31
41596;BME280;27283;52.504;13.358;2023-03-18T17:17:20;100866.03;;;15.70;58.51